sensor_id;sensor_type;location;lat;lon;timestamp;pressure;altitude;pressure_sealevel;temperature;humidity
63954;BME280;50128;52.094;5.232;2023-02-19T00:00:50;100378.0;;;3.13;100.0
63954;BME280;50128;52.094;5.232;2023-02-19T00:02:26;100377.0;;;3.07;100.0
63954;BME280;50128;52.094;5.232;2023-02-19T00:04:05;100375.0;;;3.09;100.0
63954;BME280;50128;52.094;5.232;2023-02-19T00:07:19;100376.0;;;3.07;100.0
63954;BME280;50128;52.094;5.232;2023-02-19T00:08:56;100382.0;;;2.99;100.0
63954;BME280;50128;52.094;5.232;2023-02-19T00:10:33;100382.0;;;2.99;100.0
63954;BME280;50128;52.094;5.232;2023-02-19T00:12:09;100387.0;;;2.91;100.0
63954;BME280;50128;52.094;5.232;2023-02-19T00:15:25;100391.0;;;2.91;100.0
63954;BME280;50128;52.094;5.232;2023-02-19T00:17:01;100394.0;;;2.91;100.0
63954;BME280;50128;52.094;5.232;2023-02-19T00:18:38;100390.0;;;2.91;100.0
63954;BME280;50128;52.094;5.232;2023-02-19T00:21:53;100396.0;;;2.91;100.0
63954;BME280;50128;52.094;5.232;2023-02-19T00:23:29;100395.0;;;2.82;100.0
63954;BME280;50128;52.094;5.232;2023-02-19T00:25:06;100401.0;;;2.9;100.0
63954;BME280;50128;52.094;5.232;2023-02-19T00:28:20;100395.0;;;2.99;100.0
63954;BME280;50128;52.094;5.232;2023-02-19T00:29:58;100392.0;;;2.98;100.0
63954;BME280;50128;52.094;5.232;2023-02-19T00:31:34;100410.0;;;2.98;100.0
63954;BME280;50128;52.094;5.232;2023-02-19T00:33:11;100401.0;;;3.02;100.0
63954;BME280;50128;52.094;5.232;2023-02-19T00:36:25;100395.0;;;3.04;100.0
63954;BME280;50128;52.094;5.232;2023-02-19T00:38:03;100406.0;;;2.93;100.0
63954;BME280;50128;52.094;5.232;2023-02-19T00:39:39;100397.0;;;2.91;100.0
63954;BME280;50128;52.094;5.232;2023-02-19T00:42:57;100402.0;;;2.91;100.0
63954;BME280;50128;52.094;5.232;2023-02-19T00:44:33;100407.0;;;2.89;100.0
63954;BME280;50128;52.094;5.232;2023-02-19T00:46:10;100403.0;;;2.97;100.0
63954;BME280;50128;52.094;5.232;2023-02-19T00:47:46;100405.0;;;2.91;100.0
63954;BME280;50128;52.094;5.232;2023-02-19T00:50:59;100402.0;;;2.88;100.0
63954;BME280;50128;52.094;5.232;2023-02-19T00:52:36;100401.0;;;2.87;100.0
63954;BME280;50128;52.094;5.232;2023-02-19T00:54:12;100399.0;;;2.84;100.0
63954;BME280;50128;52.094;5.232;2023-02-19T00:57:25;100400.0;;;2.92;100.0
63954;BME280;50128;52.094;5.232;2023-02-19T00:59:03;100408.0;;;2.96;100.0
63954;BME280;50128;52.094;5.232;2023-02-19T01:00:40;100409.0;;;2.91;100.0
63954;BME280;50128;52.094;5.232;2023-02-19T01:03:53;100411.0;;;2.92;100.0
63954;BME280;50128;52.094;5.232;2023-02-19T01:05:30;100415.0;;;2.98;100.0
63954;BME280;50128;52.094;5.232;2023-02-19T01:07:07;100421.0;;;3.04;100.0
63954;BME280;50128;52.094;5.232;2023-02-19T01:08:44;100420.0;;;3.03;100.0
63954;BME280;50128;52.094;5.232;2023-02-19T01:11:56;100420.0;;;2.89;100.0
63954;BME280;50128;52.094;5.232;2023-02-19T01:13:34;100419.0;;;2.98;100.0
63954;BME280;50128;52.094;5.232;2023-02-19T01:15:11;100417.0;;;3.02;100.0
63954;BME280;50128;52.094;5.232;2023-02-19T01:18:23;100422.0;;;2.92;100.0
63954;BME280;50128;52.094;5.232;2023-02-19T01:19:59;100425.0;;;2.93;100.0
63954;BME280;50128;52.094;5.232;2023-02-19T01:21:35;100428.0;;;2.99;100.0
63954;BME280;50128;52.094;5.232;2023-02-19T01:24:48;100439.0;;;3.03;100.0
63954;BME280;50128;52.094;5.232;2023-02-19T01:26:26;100436.0;;;2.98;100.0
63954;BME280;50128;52.094;5.232;2023-02-19T01:28:04;100435.0;;;2.99;100.0
63954;BME280;50128;52.094;5.232;2023-02-19T01:29:41;100434.0;;;3.04;100.0
63954;BME280;50128;52.094;5.232;2023-02-19T01:32:57;100436.0;;;3.03;100.0
63954;BME280;50128;52.094;5.232;2023-02-19T01:34:33;100437.0;;;3.15;100.0
63954;BME280;50128;52.094;5.232;2023-02-19T01:36:10;100438.0;;;3.12;100.0
63954;BME280;50128;52.094;5.232;2023-02-19T01:39:25;100431.0;;;3.01;100.0
63954;BME280;50128;52.094;5.232;2023-02-19T01:41:04;100434.0;;;2.99;100.0
63954;BME280;50128;52.094;5.232;2023-02-19T01:42:43;100435.0;;;2.98;100.0
63954;BME280;50128;52.094;5.232;2023-02-19T01:45:27;100435.0;;;3.01;100.0
63954;BME280;50128;52.094;5.232;2023-02-19T01:47:04;100438.0;;;3.12;100.0
63954;BME280;50128;52.094;5.232;2023-02-19T01:48:41;100444.0;;;3.07;100.0
63954;BME280;50128;52.094;5.232;2023-02-19T01:51:59;100434.0;;;2.99;100.0
63954;BME280;50128;52.094;5.232;2023-02-19T01:53:39;100435.0;;;2.95;100.0
63954;BME280;50128;52.094;5.232;2023-02-19T01:55:19;100441.0;;;2.88;100.0
63954;BME280;50128;52.094;5.232;2023-02-19T01:56:56;100440.0;;;2.87;100.0
63954;BME280;50128;52.094;5.232;2023-02-19T02:00:15;100440.0;;;2.93;100.0
63954;BME280;50128;52.094;5.232;2023-02-19T02:01:52;100439.0;;;2.97;100.0
63954;BME280;50128;52.094;5.232;2023-02-19T02:03:29;100434.0;;;2.86;100.0
63954;BME280;50128;52.094;5.232;2023-02-19T02:05:09;100443.0;;;2.84;100.0
63954;BME280;50128;52.094;5.232;2023-02-19T02:10:19;100437.0;;;2.84;100.0
63954;BME280;50128;52.094;5.232;2023-02-19T02:11:56;100435.0;;;2.81;100.0
63954;BME280;50128;52.094;5.232;2023-02-19T02:13:33;100441.0;;;2.84;100.0
63954;BME280;50128;52.094;5.232;2023-02-19T02:16:54;100443.0;;;2.89;100.0
63954;BME280;50128;52.094;5.232;2023-02-19T02:18:45;100434.0;;;2.9;100.0
63954;BME280;50128;52.094;5.232;2023-02-19T02:20:35;100441.0;;;2.81;100.0
63954;BME280;50128;52.094;5.232;2023-02-19T02:22:31;100446.0;;;2.78;100.0
63954;BME280;50128;52.094;5.232;2023-02-19T02:26:25;100442.0;;;2.83;100.0
63954;BME280;50128;52.094;5.232;2023-02-19T02:28:38;100441.0;;;2.83;100.0
63954;BME280;50128;52.094;5.232;2023-02-19T02:30:30;100445.0;;;2.79;100.0
63954;BME280;50128;52.094;5.232;2023-02-19T02:34:00;100439.0;;;2.82;100.0
63954;BME280;50128;52.094;5.232;2023-02-19T02:35:44;100437.0;;;2.8;100.0
63954;BME280;50128;52.094;5.232;2023-02-19T02:37:22;100443.0;;;2.91;100.0
63954;BME280;50128;52.094;5.232;2023-02-19T02:39:03;100444.0;;;2.9;100.0
63954;BME280;50128;52.094;5.232;2023-02-19T02:40:46;100444.0;;;2.74;100.0
63954;BME280;50128;52.094;5.232;2023-02-19T02:44:03;100451.0;;;2.74;100.0
63954;BME280;50128;52.094;5.232;2023-02-19T02:45:40;100448.0;;;2.75;100.0
63954;BME280;50128;52.094;5.232;2023-02-19T02:47:43;100449.0;;;2.84;100.0
63954;BME280;50128;52.094;5.232;2023-02-19T02:49:23;100456.0;;;2.71;100.0
63954;BME280;50128;52.094;5.232;2023-02-19T02:55:09;100461.0;;;2.75;100.0
63954;BME280;50128;52.094;5.232;2023-02-19T02:56:48;100462.0;;;2.73;100.0
63954;BME280;50128;52.094;5.232;2023-02-19T02:58:27;100452.0;;;2.78;100.0
63954;BME280;50128;52.094;5.232;2023-02-19T03:00:05;100459.0;;;2.83;100.0
63954;BME280;50128;52.094;5.232;2023-02-19T03:02:21;100460.0;;;2.79;100.0
63954;BME280;50128;52.094;5.232;2023-02-19T03:04:02;100467.0;;;2.75;100.0
63954;BME280;50128;52.094;5.232;2023-02-19T03:07:43;100465.0;;;2.72;100.0
63954;BME280;50128;52.094;5.232;2023-02-19T03:09:25;100464.0;;;2.76;100.0
63954;BME280;50128;52.094;5.232;2023-02-19T03:19:22;100477.0;;;2.58;100.0
63954;BME280;50128;52.094;5.232;2023-02-19T03:21:03;100480.0;;;2.71;100.0
63954;BME280;50128;52.094;5.232;2023-02-19T03:22:44;100480.0;;;2.64;100.0
63954;BME280;50128;52.094;5.232;2023-02-19T03:27:49;100485.0;;;2.63;100.0
63954;BME280;50128;52.094;5.232;2023-02-19T03:29:29;100477.0;;;2.73;100.0
63954;BME280;50128;52.094;5.232;2023-02-19T03:31:09;100483.0;;;2.68;100.0
63954;BME280;50128;52.094;5.232;2023-02-19T03:34:33;100488.0;;;2.73;100.0
63954;BME280;50128;52.094;5.232;2023-02-19T03:36:13;100491.0;;;2.73;100.0
63954;BME280;50128;52.094;5.232;2023-02-19T03:38:02;100487.0;;;2.61;100.0
63954;BME280;50128;52.094;5.232;2023-02-19T03:39:43;100494.0;;;2.69;100.0
63954;BME280;50128;52.094;5.232;2023-02-19T03:41:24;100492.0;;;2.61;100.0
63954;BME280;50128;52.094;5.232;2023-02-19T03:45:01;100491.0;;;2.6;100.0
63954;BME280;50128;52.094;5.232;2023-02-19T03:46:54;100494.0;;;2.59;100.0
63954;BME280;50128;52.094;5.232;2023-02-19T03:48:35;100492.0;;;2.59;100.0
63954;BME280;50128;52.094;5.232;2023-02-19T03:50:18;100497.0;;;2.68;100.0
63954;BME280;50128;52.094;5.232;2023-02-19T03:52:02;100497.0;;;2.69;100.0
63954;BME280;50128;52.094;5.232;2023-02-19T03:55:31;100505.0;;;2.7;100.0
63954;BME280;50128;52.094;5.232;2023-02-19T03:57:18;100511.0;;;2.6;100.0
63954;BME280;50128;52.094;5.232;2023-02-19T03:59:00;100507.0;;;2.56;100.0
63954;BME280;50128;52.094;5.232;2023-02-19T04:00:46;100509.0;;;2.56;100.0
63954;BME280;50128;52.094;5.232;2023-02-19T04:02:29;100515.0;;;2.59;100.0
63954;BME280;50128;52.094;5.232;2023-02-19T04:05:58;100520.0;;;2.56;100.0
63954;BME280;50128;52.094;5.232;2023-02-19T04:07:40;100519.0;;;2.54;100.0
63954;BME280;50128;52.094;5.232;2023-02-19T04:09:21;100523.0;;;2.56;100.0
63954;BME280;50128;52.094;5.232;2023-02-19T04:11:01;100525.0;;;2.6;100.0
63954;BME280;50128;52.094;5.232;2023-02-19T04:14:23;100528.0;;;2.58;100.0
63954;BME280;50128;52.094;5.232;2023-02-19T04:16:06;100524.0;;;2.56;100.0
63954;BME280;50128;52.094;5.232;2023-02-19T04:17:59;100536.0;;;2.67;100.0
63954;BME280;50128;52.094;5.232;2023-02-19T04:19:40;100530.0;;;2.56;100.0
63954;BME280;50128;52.094;5.232;2023-02-19T04:21:18;100532.0;;;2.66;100.0
63954;BME280;50128;52.094;5.232;2023-02-19T04:24:38;100532.0;;;2.58;100.0
63954;BME280;50128;52.094;5.232;2023-02-19T04:26:19;100525.0;;;2.54;100.0
63954;BME280;50128;52.094;5.232;2023-02-19T04:27:58;100535.0;;;2.57;100.0
63954;BME280;50128;52.094;5.232;2023-02-19T04:29:35;100534.0;;;2.6;100.0
63954;BME280;50128;52.094;5.232;2023-02-19T04:32:49;100541.0;;;2.61;100.0
63954;BME280;50128;52.094;5.232;2023-02-19T04:34:26;100549.0;;;2.61;100.0
63954;BME280;50128;52.094;5.232;2023-02-19T04:36:04;100548.0;;;2.64;100.0
63954;BME280;50128;52.094;5.232;2023-02-19T04:39:19;100547.0;;;2.62;100.0
63954;BME280;50128;52.094;5.232;2023-02-19T04:40:56;100559.0;;;2.61;100.0
63954;BME280;50128;52.094;5.232;2023-02-19T04:42:33;100557.0;;;2.59;100.0
63954;BME280;50128;52.094;5.232;2023-02-19T04:44:10;100564.0;;;2.58;100.0
63954;BME280;50128;52.094;5.232;2023-02-19T04:47:24;100565.0;;;2.56;100.0
63954;BME280;50128;52.094;5.232;2023-02-19T04:49:00;100571.0;;;2.56;100.0
63954;BME280;50128;52.094;5.232;2023-02-19T04:50:38;100575.0;;;2.5;100.0
63954;BME280;50128;52.094;5.232;2023-02-19T04:53:51;100587.0;;;2.46;100.0
63954;BME280;50128;52.094;5.232;2023-02-19T04:55:27;100596.0;;;2.48;100.0
63954;BME280;50128;52.094;5.232;2023-02-19T04:57:04;100585.0;;;2.52;100.0
63954;BME280;50128;52.094;5.232;2023-02-19T05:00:19;100596.0;;;2.5;100.0
63954;BME280;50128;52.094;5.232;2023-02-19T05:01:57;100594.0;;;2.54;100.0
63954;BME280;50128;52.094;5.232;2023-02-19T05:03:34;100597.0;;;2.54;100.0
63954;BME280;50128;52.094;5.232;2023-02-19T05:05:11;100594.0;;;2.58;100.0
63954;BME280;50128;52.094;5.232;2023-02-19T05:08:24;100600.0;;;2.63;100.0
63954;BME280;50128;52.094;5.232;2023-02-19T05:10:01;100603.0;;;2.65;100.0
63954;BME280;50128;52.094;5.232;2023-02-19T05:11:38;100601.0;;;2.58;100.0
63954;BME280;50128;52.094;5.232;2023-02-19T05:14:50;100605.0;;;2.57;100.0
63954;BME280;50128;52.094;5.232;2023-02-19T05:16:27;100610.0;;;2.46;100.0
63954;BME280;50128;52.094;5.232;2023-02-19T05:18:03;100611.0;;;2.46;100.0
63954;BME280;50128;52.094;5.232;2023-02-19T05:19:40;100614.0;;;2.52;100.0
63954;BME280;50128;52.094;5.232;2023-02-19T05:22:54;100618.0;;;2.56;100.0
63954;BME280;50128;52.094;5.232;2023-02-19T05:24:31;100628.0;;;2.65;100.0
63954;BME280;50128;52.094;5.232;2023-02-19T05:26:11;100621.0;;;2.56;100.0
63954;BME280;50128;52.094;5.232;2023-02-19T05:29:24;100617.0;;;2.65;100.0
63954;BME280;50128;52.094;5.232;2023-02-19T05:31:04;100628.0;;;2.71;100.0
63954;BME280;50128;52.094;5.232;2023-02-19T05:32:41;100625.0;;;2.72;100.0
63954;BME280;50128;52.094;5.232;2023-02-19T05:34:18;100623.0;;;2.64;100.0
63954;BME280;50128;52.094;5.232;2023-02-19T05:37:31;100630.0;;;2.61;100.0
63954;BME280;50128;52.094;5.232;2023-02-19T05:39:10;100627.0;;;2.7;100.0
63954;BME280;50128;52.094;5.232;2023-02-19T05:40:47;100627.0;;;2.67;100.0
63954;BME280;50128;52.094;5.232;2023-02-19T05:44:00;100627.0;;;2.75;100.0
63954;BME280;50128;52.094;5.232;2023-02-19T05:45:38;100624.0;;;2.67;100.0
63954;BME280;50128;52.094;5.232;2023-02-19T05:47:14;100623.0;;;2.59;100.0
63954;BME280;50128;52.094;5.232;2023-02-19T05:50:30;100626.0;;;2.63;100.0
63954;BME280;50128;52.094;5.232;2023-02-19T05:52:08;100628.0;;;2.69;100.0
63954;BME280;50128;52.094;5.232;2023-02-19T05:53:45;100626.0;;;2.72;100.0
63954;BME280;50128;52.094;5.232;2023-02-19T05:55:21;100628.0;;;2.69;100.0
63954;BME280;50128;52.094;5.232;2023-02-19T05:58:34;100633.0;;;2.74;100.0
63954;BME280;50128;52.094;5.232;2023-02-19T06:00:14;100636.0;;;2.71;100.0
63954;BME280;50128;52.094;5.232;2023-02-19T06:01:52;100638.0;;;2.63;100.0
63954;BME280;50128;52.094;5.232;2023-02-19T06:05:07;100641.0;;;2.63;100.0
63954;BME280;50128;52.094;5.232;2023-02-19T06:06:43;100639.0;;;2.66;100.0
63954;BME280;50128;52.094;5.232;2023-02-19T06:08:20;100637.0;;;2.62;100.0
63954;BME280;50128;52.094;5.232;2023-02-19T06:09:57;100640.0;;;2.52;100.0
63954;BME280;50128;52.094;5.232;2023-02-19T06:13:11;100641.0;;;2.56;100.0
63954;BME280;50128;52.094;5.232;2023-02-19T06:14:47;100650.0;;;2.56;100.0
63954;BME280;50128;52.094;5.232;2023-02-19T06:16:24;100664.0;;;2.56;100.0
63954;BME280;50128;52.094;5.232;2023-02-19T06:19:38;100668.0;;;2.6;100.0
63954;BME280;50128;52.094;5.232;2023-02-19T06:21:15;100670.0;;;2.63;100.0
63954;BME280;50128;52.094;5.232;2023-02-19T06:22:52;100674.0;;;2.64;100.0
63954;BME280;50128;52.094;5.232;2023-02-19T06:24:30;100677.0;;;2.6;100.0
63954;BME280;50128;52.094;5.232;2023-02-19T06:27:46;100682.0;;;2.68;100.0
63954;BME280;50128;52.094;5.232;2023-02-19T06:29:23;100685.0;;;2.54;100.0
63954;BME280;50128;52.094;5.232;2023-02-19T06:31:00;100687.0;;;2.48;100.0
63954;BME280;50128;52.094;5.232;2023-02-19T06:34:14;100692.0;;;2.56;100.0
63954;BME280;50128;52.094;5.232;2023-02-19T06:35:52;100692.0;;;2.56;100.0
63954;BME280;50128;52.094;5.232;2023-02-19T06:37:28;100693.0;;;2.56;100.0
63954;BME280;50128;52.094;5.232;2023-02-19T06:40:42;100688.0;;;2.35;100.0
63954;BME280;50128;52.094;5.232;2023-02-19T06:42:18;100692.0;;;2.46;100.0
63954;BME280;50128;52.094;5.232;2023-02-19T06:43:55;100690.0;;;2.38;100.0
63954;BME280;50128;52.094;5.232;2023-02-19T06:45:32;100694.0;;;2.4;100.0
63954;BME280;50128;52.094;5.232;2023-02-19T06:48:45;100707.0;;;2.33;100.0
63954;BME280;50128;52.094;5.232;2023-02-19T06:50:23;100706.0;;;2.36;100.0
63954;BME280;50128;52.094;5.232;2023-02-19T06:52:01;100709.0;;;2.25;100.0
63954;BME280;50128;52.094;5.232;2023-02-19T06:55:14;100710.0;;;2.25;100.0
63954;BME280;50128;52.094;5.232;2023-02-19T06:56:51;100717.0;;;2.29;100.0
63954;BME280;50128;52.094;5.232;2023-02-19T06:58:29;100725.0;;;2.4;100.0
63954;BME280;50128;52.094;5.232;2023-02-19T07:00:07;100728.0;;;2.44;100.0
63954;BME280;50128;52.094;5.232;2023-02-19T07:03:21;100730.0;;;2.39;100.0
63954;BME280;50128;52.094;5.232;2023-02-19T07:04:58;100732.0;;;2.36;100.0
63954;BME280;50128;52.094;5.232;2023-02-19T07:06:35;100739.0;;;2.4;100.0
63954;BME280;50128;52.094;5.232;2023-02-19T07:09:48;100744.0;;;2.33;100.0
63954;BME280;50128;52.094;5.232;2023-02-19T07:11:25;100744.0;;;2.31;100.0
63954;BME280;50128;52.094;5.232;2023-02-19T07:13:03;100745.0;;;2.19;100.0
63954;BME280;50128;52.094;5.232;2023-02-19T07:14:40;100747.0;;;2.23;100.0
63954;BME280;50128;52.094;5.232;2023-02-19T07:17:54;100750.0;;;2.33;100.0
63954;BME280;50128;52.094;5.232;2023-02-19T07:19:31;100755.0;;;2.23;100.0
63954;BME280;50128;52.094;5.232;2023-02-19T07:21:09;100760.0;;;2.29;100.0
63954;BME280;50128;52.094;5.232;2023-02-19T07:24:25;100762.0;;;2.31;100.0
63954;BME280;50128;52.094;5.232;2023-02-19T07:26:03;100766.0;;;2.23;100.0
63954;BME280;50128;52.094;5.232;2023-02-19T07:27:42;100762.0;;;2.23;100.0
63954;BME280;50128;52.094;5.232;2023-02-19T07:29:18;100761.0;;;2.25;100.0
63954;BME280;50128;52.094;5.232;2023-02-19T07:32:39;100768.0;;;2.38;100.0
63954;BME280;50128;52.094;5.232;2023-02-19T07:34:16;100772.0;;;2.33;100.0
63954;BME280;50128;52.094;5.232;2023-02-19T07:35:52;100778.0;;;2.23;100.0
63954;BME280;50128;52.094;5.232;2023-02-19T07:39:05;100782.0;;;2.36;100.0
63954;BME280;50128;52.094;5.232;2023-02-19T07:40:49;100789.0;;;2.41;100.0
63954;BME280;50128;52.094;5.232;2023-02-19T07:42:25;100781.0;;;2.29;100.0
63954;BME280;50128;52.094;5.232;2023-02-19T07:44:02;100791.0;;;2.33;100.0
63954;BME280;50128;52.094;5.232;2023-02-19T07:47:15;100789.0;;;2.31;100.0
63954;BME280;50128;52.094;5.232;2023-02-19T07:48:51;100790.0;;;2.27;100.0
63954;BME280;50128;52.094;5.232;2023-02-19T07:50:27;100792.0;;;2.27;100.0
63954;BME280;50128;52.094;5.232;2023-02-19T07:53:39;100800.0;;;2.19;100.0
63954;BME280;50128;52.094;5.232;2023-02-19T07:55:16;100803.0;;;2.1;100.0
63954;BME280;50128;52.094;5.232;2023-02-19T07:56:52;100805.0;;;2.23;100.0
63954;BME280;50128;52.094;5.232;2023-02-19T08:00:08;100807.0;;;2.19;100.0
63954;BME280;50128;52.094;5.232;2023-02-19T08:03:01;100808.0;;;2.27;100.0
63954;BME280;50128;52.094;5.232;2023-02-19T08:04:38;100813.0;;;2.21;100.0
63954;BME280;50128;52.094;5.232;2023-02-19T08:06:15;100813.0;;;2.19;100.0
63954;BME280;50128;52.094;5.232;2023-02-19T08:07:52;100813.0;;;2.04;100.0
63954;BME280;50128;52.094;5.232;2023-02-19T08:09:29;100815.0;;;2.23;100.0
63954;BME280;50128;52.094;5.232;2023-02-19T08:15:06;100816.0;;;2.27;100.0
63954;BME280;50128;52.094;5.232;2023-02-19T08:16:47;100825.0;;;2.13;100.0
63954;BME280;50128;52.094;5.232;2023-02-19T08:18:26;100831.0;;;2.05;100.0
63954;BME280;50128;52.094;5.232;2023-02-19T08:20:04;100838.0;;;2.19;100.0
63954;BME280;50128;52.094;5.232;2023-02-19T08:21:41;100845.0;;;2.21;100.0
63954;BME280;50128;52.094;5.232;2023-02-19T08:24:56;100848.0;;;2.14;100.0
63954;BME280;50128;52.094;5.232;2023-02-19T08:26:33;100848.0;;;2.17;100.0
63954;BME280;50128;52.094;5.232;2023-02-19T08:28:10;100851.0;;;2.25;100.0
63954;BME280;50128;52.094;5.232;2023-02-19T08:31:23;100855.0;;;2.21;100.0
63954;BME280;50128;52.094;5.232;2023-02-19T08:33:00;100860.0;;;2.17;100.0
63954;BME280;50128;52.094;5.232;2023-02-19T08:34:37;100853.0;;;2.14;100.0
63954;BME280;50128;52.094;5.232;2023-02-19T08:37:50;100851.0;;;2.21;100.0
63954;BME280;50128;52.094;5.232;2023-02-19T08:39:31;100860.0;;;2.25;100.0
63954;BME280;50128;52.094;5.232;2023-02-19T08:41:09;100869.0;;;2.25;100.0
63954;BME280;50128;52.094;5.232;2023-02-19T08:42:47;100867.0;;;2.21;100.0
63954;BME280;50128;52.094;5.232;2023-02-19T08:46:00;100871.0;;;2.31;100.0
63954;BME280;50128;52.094;5.232;2023-02-19T08:47:38;100877.0;;;2.42;100.0
63954;BME280;50128;52.094;5.232;2023-02-19T08:49:15;100881.0;;;2.46;100.0
63954;BME280;50128;52.094;5.232;2023-02-19T08:52:30;100877.0;;;2.44;100.0
63954;BME280;50128;52.094;5.232;2023-02-19T08:54:07;100872.0;;;2.39;100.0
63954;BME280;50128;52.094;5.232;2023-02-19T08:55:44;100874.0;;;2.41;100.0
63954;BME280;50128;52.094;5.232;2023-02-19T08:57:20;100874.0;;;2.52;100.0
63954;BME280;50128;52.094;5.232;2023-02-19T09:00:32;100881.0;;;2.52;100.0
63954;BME280;50128;52.094;5.232;2023-02-19T09:02:08;100877.0;;;2.56;100.0
63954;BME280;50128;52.094;5.232;2023-02-19T09:03:44;100878.0;;;2.48;100.0
63954;BME280;50128;52.094;5.232;2023-02-19T09:06:57;100875.0;;;2.44;100.0
63954;BME280;50128;52.094;5.232;2023-02-19T09:08:33;100875.0;;;2.54;100.0
63954;BME280;50128;52.094;5.232;2023-02-19T09:10:09;100880.0;;;2.46;100.0
63954;BME280;50128;52.094;5.232;2023-02-19T09:13:26;100878.0;;;2.54;100.0
63954;BME280;50128;52.094;5.232;2023-02-19T09:15:03;100869.0;;;2.48;100.0
63954;BME280;50128;52.094;5.232;2023-02-19T09:16:39;100884.0;;;2.44;100.0
63954;BME280;50128;52.094;5.232;2023-02-19T09:18:16;100895.0;;;2.56;100.0
63954;BME280;50128;52.094;5.232;2023-02-19T09:21:30;100898.0;;;2.58;100.0
63954;BME280;50128;52.094;5.232;2023-02-19T09:23:06;100890.0;;;2.64;100.0
63954;BME280;50128;52.094;5.232;2023-02-19T09:24:43;100891.0;;;2.56;100.0
63954;BME280;50128;52.094;5.232;2023-02-19T09:27:56;100891.0;;;2.64;100.0
63954;BME280;50128;52.094;5.232;2023-02-19T09:29:34;100893.0;;;2.64;100.0
63954;BME280;50128;52.094;5.232;2023-02-19T09:31:12;100900.0;;;2.64;100.0
63954;BME280;50128;52.094;5.232;2023-02-19T09:32:50;100915.0;;;2.68;100.0
63954;BME280;50128;52.094;5.232;2023-02-19T09:36:05;100926.0;;;2.75;100.0
63954;BME280;50128;52.094;5.232;2023-02-19T09:37:42;100937.0;;;2.79;100.0
63954;BME280;50128;52.094;5.232;2023-02-19T09:39:20;100941.0;;;2.89;100.0
63954;BME280;50128;52.094;5.232;2023-02-19T09:42:41;100944.0;;;2.75;100.0
63954;BME280;50128;52.094;5.232;2023-02-19T09:44:23;100945.0;;;2.88;100.0
63954;BME280;50128;52.094;5.232;2023-02-19T09:46:08;100951.0;;;2.67;100.0
63954;BME280;50128;52.094;5.232;2023-02-19T09:48:04;100953.0;;;2.66;100.0
63954;BME280;50128;52.094;5.232;2023-02-19T09:53:14;100955.0;;;2.73;100.0
63954;BME280;50128;52.094;5.232;2023-02-19T09:55:00;100955.0;;;2.76;100.0
63954;BME280;50128;52.094;5.232;2023-02-19T09:56:38;100971.0;;;2.77;100.0
63954;BME280;50128;52.094;5.232;2023-02-19T09:58:21;100966.0;;;2.81;100.0
63954;BME280;50128;52.094;5.232;2023-02-19T10:00:05;100975.0;;;2.96;100.0
63954;BME280;50128;52.094;5.232;2023-02-19T10:03:43;100970.0;;;2.9;100.0
63954;BME280;50128;52.094;5.232;2023-02-19T10:05:22;100975.0;;;2.88;100.0
63954;BME280;50128;52.094;5.232;2023-02-19T10:07:03;100982.0;;;2.99;100.0
63954;BME280;50128;52.094;5.232;2023-02-19T10:08:39;100984.0;;;2.97;100.0
63954;BME280;50128;52.094;5.232;2023-02-19T10:12:12;100991.0;;;2.92;100.0
63954;BME280;50128;52.094;5.232;2023-02-19T10:13:53;100992.0;;;2.92;100.0
63954;BME280;50128;52.094;5.232;2023-02-19T10:15:44;100991.0;;;3.05;100.0
63954;BME280;50128;52.094;5.232;2023-02-19T10:17:26;100998.0;;;3.15;100.0
63954;BME280;50128;52.094;5.232;2023-02-19T10:19:08;101000.0;;;3.1;100.0
63954;BME280;50128;52.094;5.232;2023-02-19T10:22:25;101005.0;;;2.99;100.0
63954;BME280;50128;52.094;5.232;2023-02-19T10:24:04;101009.0;;;3.1;100.0
63954;BME280;50128;52.094;5.232;2023-02-19T10:25:44;101007.0;;;3.16;100.0
63954;BME280;50128;52.094;5.232;2023-02-19T10:27:21;101011.0;;;3.23;100.0
63954;BME280;50128;52.094;5.232;2023-02-19T10:30:41;101011.0;;;3.21;100.0
63954;BME280;50128;52.094;5.232;2023-02-19T10:32:22;101020.0;;;3.25;100.0
63954;BME280;50128;52.094;5.232;2023-02-19T10:34:01;101022.0;;;3.28;100.0
63954;BME280;50128;52.094;5.232;2023-02-19T10:35:51;101032.0;;;3.3;100.0
63954;BME280;50128;52.094;5.232;2023-02-19T10:39:30;101033.0;;;3.28;100.0
63954;BME280;50128;52.094;5.232;2023-02-19T10:41:16;101039.0;;;3.24;100.0
63954;BME280;50128;52.094;5.232;2023-02-19T10:42:57;101035.0;;;3.29;100.0
63954;BME280;50128;52.094;5.232;2023-02-19T10:44:41;101034.0;;;3.37;100.0
63954;BME280;50128;52.094;5.232;2023-02-19T10:46:21;101033.0;;;3.46;100.0
63954;BME280;50128;52.094;5.232;2023-02-19T10:49:38;101032.0;;;3.35;100.0
63954;BME280;50128;52.094;5.232;2023-02-19T10:51:29;101030.0;;;3.24;100.0
63954;BME280;50128;52.094;5.232;2023-02-19T10:53:19;101031.0;;;3.27;100.0
63954;BME280;50128;52.094;5.232;2023-02-19T10:55:15;101037.0;;;3.31;100.0
63954;BME280;50128;52.094;5.232;2023-02-19T10:57:14;101041.0;;;3.23;100.0
63954;BME280;50128;52.094;5.232;2023-02-19T10:59:14;101035.0;;;3.24;100.0
63954;BME280;50128;52.094;5.232;2023-02-19T11:01:11;101032.0;;;3.32;100.0
63954;BME280;50128;52.094;5.232;2023-02-19T11:03:26;101034.0;;;3.32;100.0
63954;BME280;50128;52.094;5.232;2023-02-19T11:05:08;101026.0;;;3.17;100.0
63954;BME280;50128;52.094;5.232;2023-02-19T11:06:52;101030.0;;;3.13;100.0
63954;BME280;50128;52.094;5.232;2023-02-19T11:10:25;101024.0;;;3.15;100.0
63954;BME280;50128;52.094;5.232;2023-02-19T11:12:05;101019.0;;;3.1;100.0
63954;BME280;50128;52.094;5.232;2023-02-19T11:13:42;101019.0;;;3.2;100.0
63954;BME280;50128;52.094;5.232;2023-02-19T11:15:21;101025.0;;;3.01;100.0
63954;BME280;50128;52.094;5.232;2023-02-19T11:18:39;101030.0;;;3.1;100.0
63954;BME280;50128;52.094;5.232;2023-02-19T11:20:16;101040.0;;;3.11;100.0
63954;BME280;50128;52.094;5.232;2023-02-19T11:21:54;101043.0;;;3.18;100.0
63954;BME280;50128;52.094;5.232;2023-02-19T11:25:18;101043.0;;;3.08;100.0
63954;BME280;50128;52.094;5.232;2023-02-19T11:26:56;101046.0;;;3.06;100.0
63954;BME280;50128;52.094;5.232;2023-02-19T11:28:35;101047.0;;;3.05;100.0
63954;BME280;50128;52.094;5.232;2023-02-19T11:30:32;101055.0;;;3.13;100.0
63954;BME280;50128;52.094;5.232;2023-02-19T11:32:23;101055.0;;;3.11;100.0
63954;BME280;50128;52.094;5.232;2023-02-19T11:34:24;101053.0;;;3.19;100.0